sensor_id;sensor_type;location;lat;lon;timestamp;pressure;altitude;pressure_sealevel;temperature;humidity
37064;BME280;23211;53.912;9.138;2022-09-30T00:02:10;100619.22;;;16.58;56.46
37064;BME280;23211;53.912;9.138;2022-09-30T00:04:57;100605.78;;;16.53;56.58
37064;BME280;23211;53.912;9.138;2022-09-30T00:07:42;100603.16;;;16.48;56.32
37064;BME280;23211;53.912;9.138;2022-09-30T00:10:28;100609.69;;;16.47;56.36
37064;BME280;23211;53.912;9.138;2022-09-30T00:13:14;100600.56;;;16.42;56.24
37064;BME280;23211;53.912;9.138;2022-09-30T00:16:00;100604.13;;;16.38;55.96
37064;BME280;23211;53.912;9.138;2022-09-30T00:18:46;100603.13;;;16.34;56.23
37064;BME280;23211;53.912;9.138;2022-09-30T00:21:32;100610.22;;;16.30;56.24
37064;BME280;23211;53.912;9.138;2022-09-30T00:24:18;100606.00;;;16.24;56.22
37064;BME280;23211;53.912;9.138;2022-09-30T00:27:04;100612.00;;;16.21;56.27
37064;BME280;23211;53.912;9.138;2022-09-30T00:29:50;100615.28;;;16.18;56.38
37064;BME280;23211;53.912;9.138;2022-09-30T00:32:36;100617.75;;;16.14;56.42
37064;BME280;23211;53.912;9.138;2022-09-30T00:35:21;100613.25;;;16.09;56.44
37064;BME280;23211;53.912;9.138;2022-09-30T00:38:07;100613.03;;;16.06;56.44
37064;BME280;23211;53.912;9.138;2022-09-30T00:40:53;100617.13;;;16.03;56.61
37064;BME280;23211;53.912;9.138;2022-09-30T00:43:43;100618.78;;;15.99;56.62
37064;BME280;23211;53.912;9.138;2022-09-30T00:46:36;100620.47;;;15.95;56.91
37064;BME280;23211;53.912;9.138;2022-09-30T00:49:23;100614.25;;;15.95;56.67
37064;BME280;23211;53.912;9.138;2022-09-30T00:52:10;100614.03;;;15.91;56.97
37064;BME280;23211;53.912;9.138;2022-09-30T00:54:58;100621.34;;;15.91;56.89
37064;BME280;23211;53.912;9.138;2022-09-30T00:57:46;100617.34;;;15.88;56.75
37064;BME280;23211;53.912;9.138;2022-09-30T01:00:32;100615.72;;;15.87;56.52
37064;BME280;23211;53.912;9.138;2022-09-30T01:03:18;100616.81;;;15.86;56.91
37064;BME280;23211;53.912;9.138;2022-09-30T01:06:08;100616.03;;;15.86;57.02
37064;BME280;23211;53.912;9.138;2022-09-30T01:08:54;100614.41;;;15.85;57.07
37064;BME280;23211;53.912;9.138;2022-09-30T01:11:43;100626.03;;;15.85;57.35
37064;BME280;23211;53.912;9.138;2022-09-30T01:14:28;100629.53;;;15.86;57.39
37064;BME280;23211;53.912;9.138;2022-09-30T01:23:21;100629.75;;;15.89;57.63
37064;BME280;23211;53.912;9.138;2022-09-30T01:29:39;100619.97;;;15.93;57.78
37064;BME280;23211;53.912;9.138;2022-09-30T01:32:38;100623.97;;;15.96;57.67
37064;BME280;23211;53.912;9.138;2022-09-30T01:41:09;100631.13;;;16.05;57.65
37064;BME280;23211;53.912;9.138;2022-09-30T01:47:23;100640.03;;;16.06;58.03
37064;BME280;23211;53.912;9.138;2022-09-30T01:56:26;100641.28;;;16.14;58.22
37064;BME280;23211;53.912;9.138;2022-09-30T01:59:24;100638.59;;;16.14;58.27
37064;BME280;23211;53.912;9.138;2022-09-30T02:02:17;100642.59;;;16.16;58.10
37064;BME280;23211;53.912;9.138;2022-09-30T02:05:09;100644.72;;;16.19;58.21
37064;BME280;23211;53.912;9.138;2022-09-30T02:07:59;100647.94;;;16.21;58.35
37064;BME280;23211;53.912;9.138;2022-09-30T02:10:56;100645.22;;;16.21;58.46
37064;BME280;23211;53.912;9.138;2022-09-30T02:13:48;100647.84;;;16.26;58.99
37064;BME280;23211;53.912;9.138;2022-09-30T02:16:38;100641.06;;;16.29;58.89
37064;BME280;23211;53.912;9.138;2022-09-30T02:19:35;100651.88;;;16.29;59.00
37064;BME280;23211;53.912;9.138;2022-09-30T02:22:30;100650.19;;;16.33;59.03
37064;BME280;23211;53.912;9.138;2022-09-30T02:25:40;100649.09;;;16.34;59.01
37064;BME280;23211;53.912;9.138;2022-09-30T02:28:29;100647.91;;;16.40;59.10
37064;BME280;23211;53.912;9.138;2022-09-30T02:31:16;100651.94;;;16.42;59.17
37064;BME280;23211;53.912;9.138;2022-09-30T02:34:07;100645.94;;;16.46;59.11
37064;BME280;23211;53.912;9.138;2022-09-30T02:37:03;100640.22;;;16.47;59.16
37064;BME280;23211;53.912;9.138;2022-09-30T02:43:13;100642.56;;;16.54;59.43
37064;BME280;23211;53.912;9.138;2022-09-30T02:49:01;100651.09;;;16.61;59.27
37064;BME280;23211;53.912;9.138;2022-09-30T02:58:07;100648.09;;;16.62;59.40
37064;BME280;23211;53.912;9.138;2022-09-30T03:00:56;100658.34;;;16.65;59.41
37064;BME280;23211;53.912;9.138;2022-09-30T03:03:46;100660.75;;;16.67;59.30
37064;BME280;23211;53.912;9.138;2022-09-30T03:06:35;100658.56;;;16.69;59.33
37064;BME280;23211;53.912;9.138;2022-09-30T03:09:25;100655.84;;;16.69;59.28
37064;BME280;23211;53.912;9.138;2022-09-30T03:18:36;100666.97;;;16.67;59.28
37064;BME280;23211;53.912;9.138;2022-09-30T03:28:40;100677.63;;;16.59;59.34
37064;BME280;23211;53.912;9.138;2022-09-30T03:31:40;100675.22;;;16.57;59.41
37064;BME280;23211;53.912;9.138;2022-09-30T03:37:45;100686.63;;;16.54;59.22
37064;BME280;23211;53.912;9.138;2022-09-30T03:40:42;100696.94;;;16.52;59.15
37064;BME280;23211;53.912;9.138;2022-09-30T03:43:43;100695.63;;;16.50;59.27
37064;BME280;23211;53.912;9.138;2022-09-30T03:46:42;100693.22;;;16.48;59.21
37064;BME280;23211;53.912;9.138;2022-09-30T03:49:34;100688.59;;;16.49;59.33
37064;BME280;23211;53.912;9.138;2022-09-30T03:52:23;100701.31;;;16.48;59.24
37064;BME280;23211;53.912;9.138;2022-09-30T03:55:10;100710.53;;;16.47;59.22
37064;BME280;23211;53.912;9.138;2022-09-30T03:57:56;100714.63;;;16.44;59.21
37064;BME280;23211;53.912;9.138;2022-09-30T04:00:50;100708.19;;;16.40;59.09
37064;BME280;23211;53.912;9.138;2022-09-30T04:03:37;100705.78;;;16.39;59.41
37064;BME280;23211;53.912;9.138;2022-09-30T04:06:23;100712.28;;;16.38;59.22
37064;BME280;23211;53.912;9.138;2022-09-30T04:09:10;100713.41;;;16.37;59.29
37064;BME280;23211;53.912;9.138;2022-09-30T04:11:55;100721.00;;;16.35;59.14
37064;BME280;23211;53.912;9.138;2022-09-30T04:14:41;100719.69;;;16.32;59.28
37064;BME280;23211;53.912;9.138;2022-09-30T04:17:27;100724.56;;;16.30;59.23
37064;BME280;23211;53.912;9.138;2022-09-30T04:20:13;100718.94;;;16.27;59.22
37064;BME280;23211;53.912;9.138;2022-09-30T04:22:59;100727.06;;;16.27;59.36
37064;BME280;23211;53.912;9.138;2022-09-30T04:25:51;100711.94;;;16.26;59.35
37064;BME280;23211;53.912;9.138;2022-09-30T04:28:37;100719.75;;;16.27;59.24
37064;BME280;23211;53.912;9.138;2022-09-30T04:31:23;100723.53;;;16.26;59.14
37064;BME280;23211;53.912;9.138;2022-09-30T04:34:09;100735.97;;;16.27;59.34
37064;BME280;23211;53.912;9.138;2022-09-30T04:36:55;100738.16;;;16.25;59.30
37064;BME280;23211;53.912;9.138;2022-09-30T04:39:41;100749.78;;;16.26;59.17
37064;BME280;23211;53.912;9.138;2022-09-30T04:42:27;100747.66;;;16.23;59.08
37064;BME280;23211;53.912;9.138;2022-09-30T04:45:13;100754.44;;;16.20;59.31
37064;BME280;23211;53.912;9.138;2022-09-30T04:47:59;100751.75;;;16.20;59.21
37064;BME280;23211;53.912;9.138;2022-09-30T04:50:45;100753.66;;;16.20;59.40
37064;BME280;23211;53.912;9.138;2022-09-30T04:53:30;100756.34;;;16.20;59.38
37064;BME280;23211;53.912;9.138;2022-09-30T04:56:16;100764.47;;;16.20;59.40
37064;BME280;23211;53.912;9.138;2022-09-30T04:59:02;100762.56;;;16.20;59.47
37064;BME280;23211;53.912;9.138;2022-09-30T05:01:48;100772.28;;;16.21;59.64
37064;BME280;23211;53.912;9.138;2022-09-30T05:04:34;100777.91;;;16.25;59.59
37064;BME280;23211;53.912;9.138;2022-09-30T05:07:20;100777.31;;;16.28;59.60
37064;BME280;23211;53.912;9.138;2022-09-30T05:10:07;100782.97;;;16.31;59.88
37064;BME280;23211;53.912;9.138;2022-09-30T05:12:53;100780.47;;;16.35;59.68
37064;BME280;23211;53.912;9.138;2022-09-30T05:15:38;100778.00;;;16.38;59.70
37064;BME280;23211;53.912;9.138;2022-09-30T05:18:24;100779.81;;;16.43;59.49
37064;BME280;23211;53.912;9.138;2022-09-30T05:21:15;100780.63;;;16.43;59.55
37064;BME280;23211;53.912;9.138;2022-09-30T05:24:02;100779.25;;;16.46;59.54
37064;BME280;23211;53.912;9.138;2022-09-30T05:26:48;100782.47;;;16.48;59.31
37064;BME280;23211;53.912;9.138;2022-09-30T05:29:33;100778.66;;;16.49;59.36
37064;BME280;23211;53.912;9.138;2022-09-30T05:32:19;100789.47;;;16.49;59.28
37064;BME280;23211;53.912;9.138;2022-09-30T05:35:07;100793.00;;;16.50;59.48
37064;BME280;23211;53.912;9.138;2022-09-30T05:37:53;100791.09;;;16.50;59.36
37064;BME280;23211;53.912;9.138;2022-09-30T05:40:39;100792.69;;;16.51;59.34
37064;BME280;23211;53.912;9.138;2022-09-30T05:43:25;100791.59;;;16.52;59.36
37064;BME280;23211;53.912;9.138;2022-09-30T05:46:11;100790.50;;;16.53;59.07
37064;BME280;23211;53.912;9.138;2022-09-30T05:48:57;100786.19;;;16.52;58.97
37064;BME280;23211;53.912;9.138;2022-09-30T05:51:43;100788.91;;;16.52;59.14
37064;BME280;23211;53.912;9.138;2022-09-30T05:54:28;100789.69;;;16.53;59.00
37064;BME280;23211;53.912;9.138;2022-09-30T05:57:14;100802.94;;;16.54;59.05
37064;BME280;23211;53.912;9.138;2022-09-30T06:00:00;100803.72;;;16.55;58.98
37064;BME280;23211;53.912;9.138;2022-09-30T06:02:50;100808.34;;;16.54;58.98
37064;BME280;23211;53.912;9.138;2022-09-30T06:05:36;100800.53;;;16.53;59.23
37064;BME280;23211;53.912;9.138;2022-09-30T06:08:22;100803.50;;;16.51;58.88
37064;BME280;23211;53.912;9.138;2022-09-30T06:11:10;100807.31;;;16.50;59.22
37064;BME280;23211;53.912;9.138;2022-09-30T06:13:56;100814.91;;;16.48;59.16
37064;BME280;23211;53.912;9.138;2022-09-30T06:16:42;100811.13;;;16.49;59.11
37064;BME280;23211;53.912;9.138;2022-09-30T06:19:28;100804.09;;;16.48;58.94
37064;BME280;23211;53.912;9.138;2022-09-30T06:22:15;100808.19;;;16.46;58.62
37064;BME280;23211;53.912;9.138;2022-09-30T06:25:04;100820.38;;;16.43;59.05
37064;BME280;23211;53.912;9.138;2022-09-30T06:27:50;100808.25;;;16.40;58.84
37064;BME280;23211;53.912;9.138;2022-09-30T06:30:36;100810.44;;;16.38;59.07
37064;BME280;23211;53.912;9.138;2022-09-30T06:33:21;100807.22;;;16.36;58.90
37064;BME280;23211;53.912;9.138;2022-09-30T06:36:07;100814.03;;;16.34;58.89
37064;BME280;23211;53.912;9.138;2022-09-30T06:38:53;100815.13;;;16.33;58.99
37064;BME280;23211;53.912;9.138;2022-09-30T06:41:39;100820.53;;;16.33;59.28
37064;BME280;23211;53.912;9.138;2022-09-30T06:44:28;100823.50;;;16.31;59.28
37064;BME280;23211;53.912;9.138;2022-09-30T06:47:14;100815.63;;;16.35;59.68
37064;BME280;23211;53.912;9.138;2022-09-30T06:50:00;100828.56;;;16.38;59.74
37064;BME280;23211;53.912;9.138;2022-09-30T06:52:46;100826.88;;;16.42;59.95
37064;BME280;23211;53.912;9.138;2022-09-30T06:55:34;100829.53;;;16.47;60.11
37064;BME280;23211;53.912;9.138;2022-09-30T06:58:23;100831.66;;;16.50;60.11
37064;BME280;23211;53.912;9.138;2022-09-30T07:01:10;100835.38;;;16.54;60.06
37064;BME280;23211;53.912;9.138;2022-09-30T07:03:59;100828.06;;;16.55;59.74
37064;BME280;23211;53.912;9.138;2022-09-30T07:06:45;100835.09;;;16.56;59.57
37064;BME280;23211;53.912;9.138;2022-09-30T07:09:31;100840.50;;;16.56;59.57
37064;BME280;23211;53.912;9.138;2022-09-30T07:12:17;100841.31;;;16.56;59.42
37064;BME280;23211;53.912;9.138;2022-09-30T07:15:03;100845.91;;;16.56;59.38
37064;BME280;23211;53.912;9.138;2022-09-30T07:17:53;100850.00;;;16.53;59.50
37064;BME280;23211;53.912;9.138;2022-09-30T07:20:47;100847.88;;;16.50;59.43
37064;BME280;23211;53.912;9.138;2022-09-30T07:23:32;100856.00;;;16.50;59.60
37064;BME280;23211;53.912;9.138;2022-09-30T07:26:21;100845.69;;;16.52;59.77
37064;BME280;23211;53.912;9.138;2022-09-30T07:29:07;100842.13;;;16.57;59.96
37064;BME280;23211;53.912;9.138;2022-09-30T07:31:53;100850.97;;;16.62;59.91
37064;BME280;23211;53.912;9.138;2022-09-30T07:34:39;100857.16;;;16.68;60.32
37064;BME280;23211;53.912;9.138;2022-09-30T07:37:27;100854.38;;;16.73;60.44
37064;BME280;23211;53.912;9.138;2022-09-30T07:40:17;100848.09;;;16.78;60.50
37064;BME280;23211;53.912;9.138;2022-09-30T07:43:02;100856.63;;;16.85;60.52
37064;BME280;23211;53.912;9.138;2022-09-30T07:45:49;100848.16;;;16.91;60.98
37064;BME280;23211;53.912;9.138;2022-09-30T07:48:36;100843.47;;;16.97;60.80
37064;BME280;23211;53.912;9.138;2022-09-30T07:51:36;100852.03;;;17.04;60.85
37064;BME280;23211;53.912;9.138;2022-09-30T07:54:26;100844.34;;;17.11;60.89
37064;BME280;23211;53.912;9.138;2022-09-30T07:57:12;100852.09;;;17.18;60.72
37064;BME280;23211;53.912;9.138;2022-09-30T07:59:58;100848.72;;;17.26;60.52
37064;BME280;23211;53.912;9.138;2022-09-30T08:02:44;100849.72;;;17.30;60.73
37064;BME280;23211;53.912;9.138;2022-09-30T08:05:29;100855.84;;;17.35;60.55
37064;BME280;23211;53.912;9.138;2022-09-30T08:08:16;100863.91;;;17.40;60.36
37064;BME280;23211;53.912;9.138;2022-09-30T08:11:03;100859.78;;;17.43;60.19
37064;BME280;23211;53.912;9.138;2022-09-30T08:13:53;100869.53;;;17.44;60.17
37064;BME280;23211;53.912;9.138;2022-09-30T08:16:39;100865.94;;;17.49;60.16
37064;BME280;23211;53.912;9.138;2022-09-30T08:19:26;100868.06;;;17.52;60.19
37064;BME280;23211;53.912;9.138;2022-09-30T08:22:12;100881.22;;;17.58;60.19
37064;BME280;23211;53.912;9.138;2022-09-30T08:24:59;100869.78;;;17.61;60.16
37064;BME280;23211;53.912;9.138;2022-09-30T08:27:46;100870.00;;;17.65;60.15
37064;BME280;23211;53.912;9.138;2022-09-30T08:30:36;100880.25;;;17.68;59.64
37064;BME280;23211;53.912;9.138;2022-09-30T08:33:22;100875.66;;;17.68;59.37
37064;BME280;23211;53.912;9.138;2022-09-30T08:36:13;100876.75;;;17.67;59.16
37064;BME280;23211;53.912;9.138;2022-09-30T08:38:59;100887.06;;;17.65;59.27
37064;BME280;23211;53.912;9.138;2022-09-30T08:44:44;100882.00;;;17.59;58.93
37064;BME280;23211;53.912;9.138;2022-09-30T08:47:39;100877.69;;;17.58;58.87
37064;BME280;23211;53.912;9.138;2022-09-30T08:53:32;100885.75;;;17.63;59.61
37064;BME280;23211;53.912;9.138;2022-09-30T08:56:28;100882.47;;;17.66;59.93
37064;BME280;23211;53.912;9.138;2022-09-30T08:59:40;100885.09;;;17.71;60.00
37064;BME280;23211;53.912;9.138;2022-09-30T09:02:33;100887.41;;;17.78;60.02
37064;BME280;23211;53.912;9.138;2022-09-30T09:05:28;100888.13;;;17.83;60.28
37064;BME280;23211;53.912;9.138;2022-09-30T09:08:45;100894.56;;;17.87;60.14
37064;BME280;23211;53.912;9.138;2022-09-30T09:18:12;100907.44;;;18.09;60.21
37064;BME280;23211;53.912;9.138;2022-09-30T09:21:16;100909.44;;;18.03;61.61
37064;BME280;23211;53.912;9.138;2022-09-30T09:24:13;100900.91;;;18.24;61.17
37064;BME280;23211;53.912;9.138;2022-09-30T09:26:59;100904.66;;;18.42;60.96
37064;BME280;23211;53.912;9.138;2022-09-30T09:33:00;100900.94;;;18.65;60.71
37064;BME280;23211;53.912;9.138;2022-09-30T09:48:18;100901.28;;;19.22;60.36
37064;BME280;23211;53.912;9.138;2022-09-30T09:51:32;100901.69;;;19.29;60.09
37064;BME280;23211;53.912;9.138;2022-09-30T09:54:21;100905.44;;;19.42;60.13
37064;BME280;23211;53.912;9.138;2022-09-30T09:57:09;100916.59;;;19.54;59.74
37064;BME280;23211;53.912;9.138;2022-09-30T10:00:00;100901.94;;;19.63;59.51
37064;BME280;23211;53.912;9.138;2022-09-30T10:03:22;100910.97;;;19.73;59.36
37064;BME280;23211;53.912;9.138;2022-09-30T10:06:10;100912.63;;;19.82;59.16
37064;BME280;23211;53.912;9.138;2022-09-30T10:08:57;100908.34;;;19.90;59.14
37064;BME280;23211;53.912;9.138;2022-09-30T10:11:43;100921.19;;;19.98;58.72
37064;BME280;23211;53.912;9.138;2022-09-30T10:14:29;100917.69;;;20.06;58.72
37064;BME280;23211;53.912;9.138;2022-09-30T10:17:21;100914.53;;;20.13;58.35
37064;BME280;23211;53.912;9.138;2022-09-30T10:23:08;100912.50;;;20.27;58.07
37064;BME280;23211;53.912;9.138;2022-09-30T10:25:55;100911.25;;;20.33;58.17
37064;BME280;23211;53.912;9.138;2022-09-30T10:28:50;100909.22;;;20.39;57.81
37064;BME280;23211;53.912;9.138;2022-09-30T10:31:40;100913.09;;;20.46;57.84
37064;BME280;23211;53.912;9.138;2022-09-30T10:34:39;100917.09;;;20.49;57.37
37064;BME280;23211;53.912;9.138;2022-09-30T10:37:26;100917.44;;;20.56;57.48
37064;BME280;23211;53.912;9.138;2022-09-30T10:40:16;100920.31;;;20.59;57.08
37064;BME280;23211;53.912;9.138;2022-09-30T10:43:02;100916.16;;;20.62;56.83
37064;BME280;23211;53.912;9.138;2022-09-30T10:45:49;100915.38;;;20.62;56.64
37064;BME280;23211;53.912;9.138;2022-09-30T10:48:37;100916.66;;;20.64;56.44
37064;BME280;23211;53.912;9.138;2022-09-30T10:51:32;100918.56;;;20.64;56.41
37064;BME280;23211;53.912;9.138;2022-09-30T10:54:43;100905.44;;;20.66;56.74
37064;BME280;23211;53.912;9.138;2022-09-30T10:57:33;100907.38;;;20.74;56.48
37064;BME280;23211;53.912;9.138;2022-09-30T11:00:21;100909.47;;;20.77;55.85
37064;BME280;23211;53.912;9.138;2022-09-30T11:03:19;100909.47;;;20.77;55.57
37064;BME280;23211;53.912;9.138;2022-09-30T11:06:10;100910.47;;;20.81;55.86
37064;BME280;23211;53.912;9.138;2022-09-30T11:09:19;100909.34;;;20.82;55.74
37064;BME280;23211;53.912;9.138;2022-09-30T11:12:24;100909.53;;;20.85;55.23
37064;BME280;23211;53.912;9.138;2022-09-30T11:18:42;100918.63;;;20.81;54.60
37064;BME280;23211;53.912;9.138;2022-09-30T11:24:43;100917.16;;;20.75;54.45
37064;BME280;23211;53.912;9.138;2022-09-30T11:36:29;100910.41;;;20.64;54.17
37064;BME280;23211;53.912;9.138;2022-09-30T11:42:21;100908.16;;;20.66;53.90
37064;BME280;23211;53.912;9.138;2022-09-30T11:51:47;100905.16;;;20.76;53.95
37064;BME280;23211;53.912;9.138;2022-09-30T11:54:46;100904.88;;;20.86;54.01
37064;BME280;23211;53.912;9.138;2022-09-30T12:00:34;100914.50;;;21.01;52.79
37064;BME280;23211;53.912;9.138;2022-09-30T12:03:32;100901.22;;;21.08;52.36
37064;BME280;23211;53.912;9.138;2022-09-30T12:06:27;100910.81;;;21.14;52.03
37064;BME280;23211;53.912;9.138;2022-09-30T12:09:52;100901.38;;;21.11;52.27
37064;BME280;23211;53.912;9.138;2022-09-30T12:12:41;100900.44;;;21.25;52.02
37064;BME280;23211;53.912;9.138;2022-09-30T12:15:29;100888.56;;;21.29;51.75
37064;BME280;23211;53.912;9.138;2022-09-30T12:18:18;100890.66;;;21.32;50.79
37064;BME280;23211;53.912;9.138;2022-09-30T12:21:21;100899.63;;;21.33;51.01
37064;BME280;23211;53.912;9.138;2022-09-30T12:24:15;100884.72;;;21.39;51.32
37064;BME280;23211;53.912;9.138;2022-09-30T12:27:14;100892.06;;;21.47;51.41
37064;BME280;23211;53.912;9.138;2022-09-30T12:39:33;100879.72;;;21.58;50.38
37064;BME280;23211;53.912;9.138;2022-09-30T12:45:57;100880.03;;;21.57;51.07
37064;BME280;23211;53.912;9.138;2022-09-30T12:48:51;100880.19;;;21.60;50.37
37064;BME280;23211;53.912;9.138;2022-09-30T12:51:41;100876.34;;;21.61;50.41
37064;BME280;23211;53.912;9.138;2022-09-30T12:54:32;100878.75;;;21.63;50.53
37064;BME280;23211;53.912;9.138;2022-09-30T12:57:25;100876.81;;;21.63;49.99
37064;BME280;23211;53.912;9.138;2022-09-30T13:00:23;100879.69;;;21.67;50.45
37064;BME280;23211;53.912;9.138;2022-09-30T13:03:16;100884.50;;;21.70;50.42
37064;BME280;23211;53.912;9.138;2022-09-30T13:06:02;100886.41;;;21.78;50.52
37064;BME280;23211;53.912;9.138;2022-09-30T13:15:22;100856.22;;;21.83;49.61
37064;BME280;23211;53.912;9.138;2022-09-30T13:21:18;100852.50;;;21.87;49.54
37064;BME280;23211;53.912;9.138;2022-09-30T13:24:06;100855.25;;;21.87;49.02
37064;BME280;23211;53.912;9.138;2022-09-30T13:27:07;100854.28;;;21.83;48.92
37064;BME280;23211;53.912;9.138;2022-09-30T13:29:53;100852.56;;;21.70;50.89
37064;BME280;23211;53.912;9.138;2022-09-30T13:32:42;100860.06;;;21.82;49.63
37064;BME280;23211;53.912;9.138;2022-09-30T13:41:30;100857.66;;;21.80;49.09
37064;BME280;23211;53.912;9.138;2022-09-30T13:47:41;100853.03;;;21.72;48.84
37064;BME280;23211;53.912;9.138;2022-09-30T13:50:35;100847.13;;;21.70;48.26
37064;BME280;23211;53.912;9.138;2022-09-30T13:53:33;100860.59;;;21.67;48.42
37064;BME280;23211;53.912;9.138;2022-09-30T13:56:32;100854.53;;;21.61;48.52
37064;BME280;23211;53.912;9.138;2022-09-30T13:59:41;100850.19;;;21.60;49.14
37064;BME280;23211;53.912;9.138;2022-09-30T14:05:37;100843.91;;;21.68;48.91
37064;BME280;23211;53.912;9.138;2022-09-30T14:14:29;100841.00;;;21.73;48.29
37064;BME280;23211;53.912;9.138;2022-09-30T14:20:28;100841.66;;;21.70;47.96
37064;BME280;23211;53.912;9.138;2022-09-30T14:23:17;100828.50;;;21.72;48.26
37064;BME280;23211;53.912;9.138;2022-09-30T14:29:28;100837.97;;;21.66;48.19
37064;BME280;23211;53.912;9.138;2022-09-30T14:35:42;100833.97;;;21.72;48.35
37064;BME280;23211;53.912;9.138;2022-09-30T14:38:31;100836.69;;;21.72;47.83
37064;BME280;23211;53.912;9.138;2022-09-30T14:41:20;100830.75;;;21.70;47.91
37064;BME280;23211;53.912;9.138;2022-09-30T14:44:13;100827.56;;;21.68;47.83
37064;BME280;23211;53.912;9.138;2022-09-30T14:47:03;100828.50;;;21.72;48.23
37064;BME280;23211;53.912;9.138;2022-09-30T14:49:49;100835.56;;;21.73;48.09
37064;BME280;23211;53.912;9.138;2022-09-30T14:52:47;100826.75;;;21.68;47.97
37064;BME280;23211;53.912;9.138;2022-09-30T14:55:34;100823.69;;;21.69;48.06
37064;BME280;23211;53.912;9.138;2022-09-30T14:58:29;100821.94;;;21.65;47.59
37064;BME280;23211;53.912;9.138;2022-09-30T15:01:16;100826.59;;;21.64;47.87
37064;BME280;23211;53.912;9.138;2022-09-30T15:04:12;100820.84;;;21.57;47.63
37064;BME280;23211;53.912;9.138;2022-09-30T15:07:02;100815.72;;;21.55;47.63
37064;BME280;23211;53.912;9.138;2022-09-30T15:09:48;100816.03;;;21.54;47.74
37064;BME280;23211;53.912;9.138;2022-09-30T15:12:35;100813.97;;;21.51;47.79
37064;BME280;23211;53.912;9.138;2022-09-30T15:15:25;100808.03;;;21.49;47.71
37064;BME280;23211;53.912;9.138;2022-09-30T15:18:28;100808.53;;;21.42;47.90
37064;BME280;23211;53.912;9.138;2022-09-30T15:21:15;100810.63;;;21.45;48.08
37064;BME280;23211;53.912;9.138;2022-09-30T15:24:02;100807.41;;;21.43;47.65
37064;BME280;23211;53.912;9.138;2022-09-30T15:26:50;100802.28;;;21.42;47.77
37064;BME280;23211;53.912;9.138;2022-09-30T15:29:36;100808.38;;;21.39;48.11
37064;BME280;23211;53.912;9.138;2022-09-30T15:32:23;100804.88;;;21.38;48.18
37064;BME280;23211;53.912;9.138;2022-09-30T15:35:17;100808.06;;;21.40;48.17
37064;BME280;23211;53.912;9.138;2022-09-30T15:38:24;100807.59;;;21.38;48.39
37064;BME280;23211;53.912;9.138;2022-09-30T15:41:11;100803.09;;;21.42;47.93
37064;BME280;23211;53.912;9.138;2022-09-30T15:43:57;100801.81;;;21.40;47.93
37064;BME280;23211;53.912;9.138;2022-09-30T15:47:00;100805.38;;;21.32;47.97
37064;BME280;23211;53.912;9.138;2022-09-30T15:49:47;100798.78;;;21.33;48.02
37064;BME280;23211;53.912;9.138;2022-09-30T15:52:36;100807.94;;;21.28;47.93
37064;BME280;23211;53.912;9.138;2022-09-30T15:55:39;100805.69;;;21.21;48.07
37064;BME280;23211;53.912;9.138;2022-09-30T16:01:25;100811.28;;;21.16;48.07
37064;BME280;23211;53.912;9.138;2022-09-30T16:07:08;100807.31;;;21.05;48.13
37064;BME280;23211;53.912;9.138;2022-09-30T16:09:56;100801.84;;;21.05;48.23
37064;BME280;23211;53.912;9.138;2022-09-30T16:12:43;100803.78;;;21.05;48.46
37064;BME280;23211;53.912;9.138;2022-09-30T16:15:36;100807.94;;;21.02;48.26
37064;BME280;23211;53.912;9.138;2022-09-30T16:18:26;100800.91;;;21.01;48.26
37064;BME280;23211;53.912;9.138;2022-09-30T16:21:42;100798.50;;;20.91;48.33
37064;BME280;23211;53.912;9.138;2022-09-30T16:27:24;100796.56;;;20.83;48.16
37064;BME280;23211;53.912;9.138;2022-09-30T16:30:15;100804.41;;;20.76;48.08
37064;BME280;23211;53.912;9.138;2022-09-30T16:33:03;100804.56;;;20.71;48.04
37064;BME280;23211;53.912;9.138;2022-09-30T16:35:50;100803.13;;;20.65;48.26
37064;BME280;23211;53.912;9.138;2022-09-30T16:38:37;100798.16;;;20.58;48.13
37064;BME280;23211;53.912;9.138;2022-09-30T16:41:24;100802.16;;;20.52;48.10
37064;BME280;23211;53.912;9.138;2022-09-30T16:44:10;100802.63;;;20.45;48.27
37064;BME280;23211;53.912;9.138;2022-09-30T16:46:56;100798.72;;;20.38;48.30
37064;BME280;23211;53.912;9.138;2022-09-30T16:49:43;100800.31;;;20.30;48.17
37064;BME280;23211;53.912;9.138;2022-09-30T16:52:29;100800.47;;;20.25;48.41
37064;BME280;23211;53.912;9.138;2022-09-30T16:55:15;100800.13;;;20.18;48.26
37064;BME280;23211;53.912;9.138;2022-09-30T16:58:01;100796.75;;;20.12;48.33
37064;BME280;23211;53.912;9.138;2022-09-30T17:00:49;100798.03;;;20.06;48.38
37064;BME280;23211;53.912;9.138;2022-09-30T17:03:35;100798.78;;;19.98;48.58
37064;BME280;23211;53.912;9.138;2022-09-30T17:06:26;100786.78;;;19.90;48.43
37064;BME280;23211;53.912;9.138;2022-09-30T17:09:12;100793.97;;;19.86;48.60
37064;BME280;23211;53.912;9.138;2022-09-30T17:11:58;100796.31;;;19.79;48.60
37064;BME280;23211;53.912;9.138;2022-09-30T17:14:45;100806.53;;;19.74;48.50
37064;BME280;23211;53.912;9.138;2022-09-30T17:17:31;100805.88;;;19.68;48.80
37064;BME280;23211;53.912;9.138;2022-09-30T17:20:18;100806.81;;;19.63;48.75
37064;BME280;23211;53.912;9.138;2022-09-30T17:23:04;100808.69;;;19.54;49.01
37064;BME280;23211;53.912;9.138;2022-09-30T17:25:50;100809.81;;;19.53;49.17
37064;BME280;23211;53.912;9.138;2022-09-30T17:28:36;100802.56;;;19.49;49.35
37064;BME280;23211;53.912;9.138;2022-09-30T17:31:22;100809.41;;;19.46;49.41
37064;BME280;23211;53.912;9.138;2022-09-30T17:34:08;100810.84;;;19.44;49.19
37064;BME280;23211;53.912;9.138;2022-09-30T17:36:54;100812.25;;;19.41;49.52
37064;BME280;23211;53.912;9.138;2022-09-30T17:39:40;100814.47;;;19.39;49.15
37064;BME280;23211;53.912;9.138;2022-09-30T17:42:26;100802.31;;;19.37;49.44